sensor_id;sensor_type;location;lat;lon;timestamp;temperature;humidity
65396;HTU21D;52004;45.136;39.010;2022-09-09T00:00:44;13.85;51.07
65396;HTU21D;52004;45.136;39.010;2022-09-09T00:03:14;13.82;51.13
65396;HTU21D;52004;45.136;39.010;2022-09-09T00:08:21;13.78;51.21
65396;HTU21D;52004;45.136;39.010;2022-09-09T00:10:54;13.75;51.24
65396;HTU21D;52004;45.136;39.010;2022-09-09T00:13:28;13.71;51.27
65396;HTU21D;52004;45.136;39.010;2022-09-09T00:18:49;13.66;51.31
65396;HTU21D;52004;45.136;39.010;2022-09-09T00:21:17;13.61;51.37
65396;HTU21D;52004;45.136;39.010;2022-09-09T00:23:48;13.59;51.42
65396;HTU21D;52004;45.136;39.010;2022-09-09T00:28:52;13.54;51.56
65396;HTU21D;52004;45.136;39.010;2022-09-09T00:31:23;13.53;51.56
65396;HTU21D;52004;45.136;39.010;2022-09-09T00:33:50;13.50;51.56
65396;HTU21D;52004;45.136;39.010;2022-09-09T00:36:18;13.46;51.58
65396;HTU21D;52004;45.136;39.010;2022-09-09T00:38:48;13.41;51.68
65396;HTU21D;52004;45.136;39.010;2022-09-09T00:47:03;13.32;51.81
65396;HTU21D;52004;45.136;39.010;2022-09-09T00:49:39;13.31;51.86
65396;HTU21D;52004;45.136;39.010;2022-09-09T00:54:56;13.21;51.88
65396;HTU21D;52004;45.136;39.010;2022-09-09T00:57:27;13.19;51.95
65396;HTU21D;52004;45.136;39.010;2022-09-09T00:59:59;13.16;51.99
65396;HTU21D;52004;45.136;39.010;2022-09-09T01:02:32;13.14;52.04
65396;HTU21D;52004;45.136;39.010;2022-09-09T01:05:05;13.11;52.08
65396;HTU21D;52004;45.136;39.010;2022-09-09T01:07:32;13.09;52.14
65396;HTU21D;52004;45.136;39.010;2022-09-09T01:10:00;13.09;52.17
65396;HTU21D;52004;45.136;39.010;2022-09-09T01:15:09;13.08;52.21
65396;HTU21D;52004;45.136;39.010;2022-09-09T01:20:13;13.07;52.29
65396;HTU21D;52004;45.136;39.010;2022-09-09T01:22:56;13.05;52.28
65396;HTU21D;52004;45.136;39.010;2022-09-09T01:25:29;13.02;52.35
65396;HTU21D;52004;45.136;39.010;2022-09-09T01:28:08;12.97;52.42
65396;HTU21D;52004;45.136;39.010;2022-09-09T01:30:35;12.96;52.43
65396;HTU21D;52004;45.136;39.010;2022-09-09T01:33:02;12.93;52.48
65396;HTU21D;52004;45.136;39.010;2022-09-09T01:37:57;12.92;52.53
65396;HTU21D;52004;45.136;39.010;2022-09-09T01:40:23;12.90;52.55
65396;HTU21D;52004;45.136;39.010;2022-09-09T01:42:50;12.86;52.54
65396;HTU21D;52004;45.136;39.010;2022-09-09T01:45:17;12.86;52.60
65396;HTU21D;52004;45.136;39.010;2022-09-09T01:47:43;12.82;52.60
65396;HTU21D;52004;45.136;39.010;2022-09-09T01:50:17;12.79;52.62
65396;HTU21D;52004;45.136;39.010;2022-09-09T01:52:44;12.74;52.72
65396;HTU21D;52004;45.136;39.010;2022-09-09T01:55:14;12.72;52.75
65396;HTU21D;52004;45.136;39.010;2022-09-09T02:00:26;12.67;52.86
65396;HTU21D;52004;45.136;39.010;2022-09-09T02:03:05;12.69;52.89
65396;HTU21D;52004;45.136;39.010;2022-09-09T02:05:45;12.66;52.92
65396;HTU21D;52004;45.136;39.010;2022-09-09T02:08:29;12.67;52.92
65396;HTU21D;52004;45.136;39.010;2022-09-09T02:11:09;12.66;52.91
65396;HTU21D;52004;45.136;39.010;2022-09-09T02:13:43;12.63;52.94
65396;HTU21D;52004;45.136;39.010;2022-09-09T02:21:11;12.52;53.06
65396;HTU21D;52004;45.136;39.010;2022-09-09T02:23:37;12.51;53.10
65396;HTU21D;52004;45.136;39.010;2022-09-09T02:26:11;12.47;53.16
65396;HTU21D;52004;45.136;39.010;2022-09-09T02:28:39;12.45;53.23
65396;HTU21D;52004;45.136;39.010;2022-09-09T02:31:07;12.44;53.33
65396;HTU21D;52004;45.136;39.010;2022-09-09T02:33:40;12.45;53.34
65396;HTU21D;52004;45.136;39.010;2022-09-09T02:36:08;12.46;53.33
65396;HTU21D;52004;45.136;39.010;2022-09-09T02:38:37;12.46;53.33
65396;HTU21D;52004;45.136;39.010;2022-09-09T02:41:08;12.44;53.36
65396;HTU21D;52004;45.136;39.010;2022-09-09T02:43:35;12.43;53.39
65396;HTU21D;52004;45.136;39.010;2022-09-09T02:46:20;12.44;53.45
65396;HTU21D;52004;45.136;39.010;2022-09-09T02:49:00;12.44;53.46
65396;HTU21D;52004;45.136;39.010;2022-09-09T02:54:14;12.45;53.47
65396;HTU21D;52004;45.136;39.010;2022-09-09T02:56:44;12.46;53.48
65396;HTU21D;52004;45.136;39.010;2022-09-09T02:59:11;12.45;53.49
65396;HTU21D;52004;45.136;39.010;2022-09-09T03:01:39;12.46;53.49
65396;HTU21D;52004;45.136;39.010;2022-09-09T03:04:06;12.44;53.51
65396;HTU21D;52004;45.136;39.010;2022-09-09T03:06:32;12.43;53.55
65396;HTU21D;52004;45.136;39.010;2022-09-09T03:09:07;12.40;53.59
65396;HTU21D;52004;45.136;39.010;2022-09-09T03:11:37;12.35;53.62
65396;HTU21D;52004;45.136;39.010;2022-09-09T03:14:04;12.32;53.72
65396;HTU21D;52004;45.136;39.010;2022-09-09T03:16:31;12.29;53.75
65396;HTU21D;52004;45.136;39.010;2022-09-09T03:19:00;12.29;53.81
65396;HTU21D;52004;45.136;39.010;2022-09-09T03:21:27;12.28;53.86
65396;HTU21D;52004;45.136;39.010;2022-09-09T03:23:54;12.28;53.91
65396;HTU21D;52004;45.136;39.010;2022-09-09T03:26:20;12.27;53.96
65396;HTU21D;52004;45.136;39.010;2022-09-09T03:28:46;12.28;54.01
65396;HTU21D;52004;45.136;39.010;2022-09-09T03:31:16;12.31;54.08
65396;HTU21D;52004;45.136;39.010;2022-09-09T03:33:42;12.36;54.10
65396;HTU21D;52004;45.136;39.010;2022-09-09T03:36:11;12.41;54.06
65396;HTU21D;52004;45.136;39.010;2022-09-09T03:38:37;12.47;54.03
65396;HTU21D;52004;45.136;39.010;2022-09-09T03:41:04;12.50;54.02
65396;HTU21D;52004;45.136;39.010;2022-09-09T03:43:32;12.57;54.03
65396;HTU21D;52004;45.136;39.010;2022-09-09T03:45:58;12.62;54.04
65396;HTU21D;52004;45.136;39.010;2022-09-09T03:48:26;12.70;54.02
65396;HTU21D;52004;45.136;39.010;2022-09-09T03:50:54;12.78;54.04
65396;HTU21D;52004;45.136;39.010;2022-09-09T03:53:22;12.85;54.03
65396;HTU21D;52004;45.136;39.010;2022-09-09T03:55:51;12.91;54.00
65396;HTU21D;52004;45.136;39.010;2022-09-09T03:58:22;13.00;53.97
65396;HTU21D;52004;45.136;39.010;2022-09-09T04:01:02;13.05;53.99
65396;HTU21D;52004;45.136;39.010;2022-09-09T04:03:28;13.11;54.03
65396;HTU21D;52004;45.136;39.010;2022-09-09T04:05:55;13.16;54.07
65396;HTU21D;52004;45.136;39.010;2022-09-09T04:08:24;13.24;54.11
65396;HTU21D;52004;45.136;39.010;2022-09-09T04:10:53;13.34;54.11
65396;HTU21D;52004;45.136;39.010;2022-09-09T04:13:23;13.43;54.12
65396;HTU21D;52004;45.136;39.010;2022-09-09T04:15:54;13.51;54.16
65396;HTU21D;52004;45.136;39.010;2022-09-09T04:18:20;13.61;54.14
65396;HTU21D;52004;45.136;39.010;2022-09-09T04:20:47;13.74;54.11
65396;HTU21D;52004;45.136;39.010;2022-09-09T04:23:14;13.83;54.10
65396;HTU21D;52004;45.136;39.010;2022-09-09T04:25:43;13.92;54.04
65396;HTU21D;52004;45.136;39.010;2022-09-09T04:28:10;13.99;54.06
65396;HTU21D;52004;45.136;39.010;2022-09-09T04:30:36;14.09;54.10
65396;HTU21D;52004;45.136;39.010;2022-09-09T04:33:06;14.19;54.06
65396;HTU21D;52004;45.136;39.010;2022-09-09T04:35:32;14.32;54.03
65396;HTU21D;52004;45.136;39.010;2022-09-09T04:37:59;14.44;53.97
65396;HTU21D;52004;45.136;39.010;2022-09-09T04:40:27;14.56;53.92
65396;HTU21D;52004;45.136;39.010;2022-09-09T04:42:53;14.68;53.88
65396;HTU21D;52004;45.136;39.010;2022-09-09T04:45:20;0.00;53.85
65396;HTU21D;52004;45.136;39.010;2022-09-09T04:47:46;14.92;53.81
65396;HTU21D;52004;45.136;39.010;2022-09-09T04:50:12;15.00;53.79
65396;HTU21D;52004;45.136;39.010;2022-09-09T04:52:38;15.10;53.77
65396;HTU21D;52004;45.136;39.010;2022-09-09T04:55:04;15.19;53.78
65396;HTU21D;52004;45.136;39.010;2022-09-09T04:57:30;15.29;53.79
65396;HTU21D;52004;45.136;39.010;2022-09-09T04:59:58;0.00;53.69
65396;HTU21D;52004;45.136;39.010;2022-09-09T05:02:24;15.49;53.65
65396;HTU21D;52004;45.136;39.010;2022-09-09T05:04:50;15.61;53.61
65396;HTU21D;52004;45.136;39.010;2022-09-09T05:07:16;0.00;53.59
65396;HTU21D;52004;45.136;39.010;2022-09-09T05:09:42;15.82;53.60
65396;HTU21D;52004;45.136;39.010;2022-09-09T05:12:08;15.92;53.54
65396;HTU21D;52004;45.136;39.010;2022-09-09T05:14:35;16.01;53.59
65396;HTU21D;52004;45.136;39.010;2022-09-09T05:17:04;16.15;53.59
65396;HTU21D;52004;45.136;39.010;2022-09-09T05:19:31;16.28;53.59
65396;HTU21D;52004;45.136;39.010;2022-09-09T05:21:57;16.41;53.62
65396;HTU21D;52004;45.136;39.010;2022-09-09T05:24:31;16.56;53.62
65396;HTU21D;52004;45.136;39.010;2022-09-09T05:26:59;16.67;53.60
65396;HTU21D;52004;45.136;39.010;2022-09-09T05:29:28;16.84;53.57
65396;HTU21D;52004;45.136;39.010;2022-09-09T05:31:55;16.96;53.62
65396;HTU21D;52004;45.136;39.010;2022-09-09T05:34:21;17.11;53.60
65396;HTU21D;52004;45.136;39.010;2022-09-09T05:36:49;17.26;53.58
65396;HTU21D;52004;45.136;39.010;2022-09-09T05:39:15;17.39;53.54
65396;HTU21D;52004;45.136;39.010;2022-09-09T05:41:41;17.51;53.38
65396;HTU21D;52004;45.136;39.010;2022-09-09T05:44:08;17.58;53.32
65396;HTU21D;52004;45.136;39.010;2022-09-09T05:46:37;17.66;53.28
65396;HTU21D;52004;45.136;39.010;2022-09-09T05:49:03;17.77;53.33
65396;HTU21D;52004;45.136;39.010;2022-09-09T05:51:32;17.91;53.30
65396;HTU21D;52004;45.136;39.010;2022-09-09T05:54:03;18.03;53.21
65396;HTU21D;52004;45.136;39.010;2022-09-09T05:56:32;18.15;53.21
65396;HTU21D;52004;45.136;39.010;2022-09-09T05:58:59;18.28;53.23
65396;HTU21D;52004;45.136;39.010;2022-09-09T06:01:29;18.42;53.19
65396;HTU21D;52004;45.136;39.010;2022-09-09T06:03:57;18.54;53.12
65396;HTU21D;52004;45.136;39.010;2022-09-09T06:06:24;18.66;53.02
65396;HTU21D;52004;45.136;39.010;2022-09-09T06:08:54;18.76;52.92
65396;HTU21D;52004;45.136;39.010;2022-09-09T06:11:21;18.83;52.84
65396;HTU21D;52004;45.136;39.010;2022-09-09T06:13:48;18.93;52.74
65396;HTU21D;52004;45.136;39.010;2022-09-09T06:16:17;19.00;52.69
65396;HTU21D;52004;45.136;39.010;2022-09-09T06:18:43;19.09;52.63
65396;HTU21D;52004;45.136;39.010;2022-09-09T06:21:18;19.18;52.61
65396;HTU21D;52004;45.136;39.010;2022-09-09T06:23:45;19.28;52.49
65396;HTU21D;52004;45.136;39.010;2022-09-09T06:26:17;19.35;52.46
65396;HTU21D;52004;45.136;39.010;2022-09-09T06:28:45;19.45;52.41
65396;HTU21D;52004;45.136;39.010;2022-09-09T06:31:12;19.55;52.37
65396;HTU21D;52004;45.136;39.010;2022-09-09T06:33:39;19.66;52.34
65396;HTU21D;52004;45.136;39.010;2022-09-09T06:36:11;19.79;52.34
65396;HTU21D;52004;45.136;39.010;2022-09-09T06:38:38;19.90;52.33
65396;HTU21D;52004;45.136;39.010;2022-09-09T06:41:04;20.04;52.24
65396;HTU21D;52004;45.136;39.010;2022-09-09T06:43:32;20.18;52.19
65396;HTU21D;52004;45.136;39.010;2022-09-09T06:46:00;20.33;52.20
65396;HTU21D;52004;45.136;39.010;2022-09-09T06:48:27;20.49;52.14
65396;HTU21D;52004;45.136;39.010;2022-09-09T06:51:07;20.63;52.02
65396;HTU21D;52004;45.136;39.010;2022-09-09T06:53:35;20.79;51.91
65396;HTU21D;52004;45.136;39.010;2022-09-09T06:56:03;20.89;51.59
65396;HTU21D;52004;45.136;39.010;2022-09-09T06:58:43;20.93;51.50
65396;HTU21D;52004;45.136;39.010;2022-09-09T07:01:19;21.01;51.53
65396;HTU21D;52004;45.136;39.010;2022-09-09T07:03:47;21.16;51.59
65396;HTU21D;52004;45.136;39.010;2022-09-09T07:06:17;0.00;51.54
65396;HTU21D;52004;45.136;39.010;2022-09-09T07:08:55;21.47;51.45
65396;HTU21D;52004;45.136;39.010;2022-09-09T07:11:28;21.63;51.42
65396;HTU21D;52004;45.136;39.010;2022-09-09T07:13:55;21.72;51.21
65396;HTU21D;52004;45.136;39.010;2022-09-09T07:16:22;21.75;51.05
65396;HTU21D;52004;45.136;39.010;2022-09-09T07:18:51;21.75;50.96
65396;HTU21D;52004;45.136;39.010;2022-09-09T07:21:18;21.76;50.93
65396;HTU21D;52004;45.136;39.010;2022-09-09T07:23:46;21.76;50.79
65396;HTU21D;52004;45.136;39.010;2022-09-09T07:26:13;21.75;50.70
65396;HTU21D;52004;45.136;39.010;2022-09-09T07:28:39;21.72;50.56
65396;HTU21D;52004;45.136;39.010;2022-09-09T07:31:12;21.75;50.63
65396;HTU21D;52004;45.136;39.010;2022-09-09T07:33:39;21.81;50.45
65396;HTU21D;52004;45.136;39.010;2022-09-09T07:36:07;21.84;50.46
65396;HTU21D;52004;45.136;39.010;2022-09-09T07:38:37;21.99;50.53
65396;HTU21D;52004;45.136;39.010;2022-09-09T07:41:05;22.18;50.54
65396;HTU21D;52004;45.136;39.010;2022-09-09T07:43:31;22.36;50.46
65396;HTU21D;52004;45.136;39.010;2022-09-09T07:45:59;22.53;50.40
65396;HTU21D;52004;45.136;39.010;2022-09-09T07:48:27;22.70;50.24
65396;HTU21D;52004;45.136;39.010;2022-09-09T07:51:02;22.83;50.14
65396;HTU21D;52004;45.136;39.010;2022-09-09T07:53:28;22.95;50.07
65396;HTU21D;52004;45.136;39.010;2022-09-09T07:56:02;23.08;50.00
65396;HTU21D;52004;45.136;39.010;2022-09-09T07:58:28;23.20;49.93
65396;HTU21D;52004;45.136;39.010;2022-09-09T08:00:54;23.28;49.65
65396;HTU21D;52004;45.136;39.010;2022-09-09T08:03:20;23.34;49.58
65396;HTU21D;52004;45.136;39.010;2022-09-09T08:05:47;23.34;49.27
65396;HTU21D;52004;45.136;39.010;2022-09-09T08:08:13;23.31;49.19
65396;HTU21D;52004;45.136;39.010;2022-09-09T08:10:39;23.31;49.27
65396;HTU21D;52004;45.136;39.010;2022-09-09T08:13:08;23.38;49.21
65396;HTU21D;52004;45.136;39.010;2022-09-09T08:15:34;23.41;49.06
65396;HTU21D;52004;45.136;39.010;2022-09-09T08:18:00;23.46;49.02
65396;HTU21D;52004;45.136;39.010;2022-09-09T08:20:26;23.53;49.03
65396;HTU21D;52004;45.136;39.010;2022-09-09T08:22:52;23.64;49.03
65396;HTU21D;52004;45.136;39.010;2022-09-09T08:25:20;0.00;48.71
65396;HTU21D;52004;45.136;39.010;2022-09-09T08:27:46;23.70;48.69
65396;HTU21D;52004;45.136;39.010;2022-09-09T08:30:38;23.84;48.79
65396;HTU21D;52004;45.136;39.010;2022-09-09T08:33:05;0.00;48.82
65396;HTU21D;52004;45.136;39.010;2022-09-09T08:35:31;24.20;48.73
65396;HTU21D;52004;45.136;39.010;2022-09-09T08:37:58;24.36;48.55
65396;HTU21D;52004;45.136;39.010;2022-09-09T08:40:26;0.00;48.37
65396;HTU21D;52004;45.136;39.010;2022-09-09T08:42:54;24.54;48.30
65396;HTU21D;52004;45.136;39.010;2022-09-09T08:45:28;24.62;48.24
65396;HTU21D;52004;45.136;39.010;2022-09-09T08:53:04;24.93;47.98
65396;HTU21D;52004;45.136;39.010;2022-09-09T08:55:37;24.92;47.76
65396;HTU21D;52004;45.136;39.010;2022-09-09T08:58:09;24.83;47.64
65396;HTU21D;52004;45.136;39.010;2022-09-09T09:00:42;24.84;47.73
65396;HTU21D;52004;45.136;39.010;2022-09-09T09:08:47;24.84;47.29
65396;HTU21D;52004;45.136;39.010;2022-09-09T09:11:15;24.92;47.38
65396;HTU21D;52004;45.136;39.010;2022-09-09T09:13:43;0.00;47.29
65396;HTU21D;52004;45.136;39.010;2022-09-09T09:18:43;25.36;47.13
65396;HTU21D;52004;45.136;39.010;2022-09-09T09:21:25;25.42;46.90
65396;HTU21D;52004;45.136;39.010;2022-09-09T09:23:59;0.00;46.85
65396;HTU21D;52004;45.136;39.010;2022-09-09T09:26:30;25.56;46.80
65396;HTU21D;52004;45.136;39.010;2022-09-09T09:28:57;25.64;46.75
65396;HTU21D;52004;45.136;39.010;2022-09-09T09:31:24;25.77;46.75
65396;HTU21D;52004;45.136;39.010;2022-09-09T09:33:53;25.92;46.69
65396;HTU21D;52004;45.136;39.010;2022-09-09T09:36:24;26.04;46.47
65396;HTU21D;52004;45.136;39.010;2022-09-09T09:38:54;26.11;46.43
65396;HTU21D;52004;45.136;39.010;2022-09-09T09:41:34;26.22;46.41
65396;HTU21D;52004;45.136;39.010;2022-09-09T09:44:03;0.00;46.22
65396;HTU21D;52004;45.136;39.010;2022-09-09T09:46:30;26.40;46.17
65396;HTU21D;52004;45.136;39.010;2022-09-09T09:49:08;26.48;46.05
65396;HTU21D;52004;45.136;39.010;2022-09-09T09:51:34;26.56;45.99
65396;HTU21D;52004;45.136;39.010;2022-09-09T09:56:31;26.75;45.87
65396;HTU21D;52004;45.136;39.010;2022-09-09T09:59:00;26.84;45.80
65396;HTU21D;52004;45.136;39.010;2022-09-09T10:01:33;26.94;45.66
65396;HTU21D;52004;45.136;39.010;2022-09-09T10:04:15;27.04;45.58
65396;HTU21D;52004;45.136;39.010;2022-09-09T10:06:42;27.11;45.51
65396;HTU21D;52004;45.136;39.010;2022-09-09T10:09:20;27.21;45.48
65396;HTU21D;52004;45.136;39.010;2022-09-09T10:11:51;27.27;45.41
65396;HTU21D;52004;45.136;39.010;2022-09-09T10:14:20;27.35;45.25
65396;HTU21D;52004;45.136;39.010;2022-09-09T10:19:33;27.36;45.09
65396;HTU21D;52004;45.136;39.010;2022-09-09T10:22:04;27.38;45.07
65396;HTU21D;52004;45.136;39.010;2022-09-09T10:27:05;27.49;44.88
65396;HTU21D;52004;45.136;39.010;2022-09-09T10:32:17;27.55;44.78
65396;HTU21D;52004;45.136;39.010;2022-09-09T10:37:28;27.65;44.55
65396;HTU21D;52004;45.136;39.010;2022-09-09T10:40:00;27.68;44.53
65396;HTU21D;52004;45.136;39.010;2022-09-09T10:42:29;27.74;44.48
65396;HTU21D;52004;45.136;39.010;2022-09-09T10:45:02;27.80;44.42
65396;HTU21D;52004;45.136;39.010;2022-09-09T10:52:57;27.88;44.12
65396;HTU21D;52004;45.136;39.010;2022-09-09T10:55:33;27.91;44.15
65396;HTU21D;52004;45.136;39.010;2022-09-09T10:58:03;28.01;44.11
65396;HTU21D;52004;45.136;39.010;2022-09-09T11:00:49;28.10;44.04
65396;HTU21D;52004;45.136;39.010;2022-09-09T11:03:19;28.16;43.90
65396;HTU21D;52004;45.136;39.010;2022-09-09T11:05:46;28.23;43.87
65396;HTU21D;52004;45.136;39.010;2022-09-09T11:10:43;28.26;43.58
65396;HTU21D;52004;45.136;39.010;2022-09-09T11:13:13;28.20;43.63
65396;HTU21D;52004;45.136;39.010;2022-09-09T11:15:42;28.23;43.62
65396;HTU21D;52004;45.136;39.010;2022-09-09T11:18:11;28.28;43.61
65396;HTU21D;52004;45.136;39.010;2022-09-09T11:20:39;28.37;43.58
65396;HTU21D;52004;45.136;39.010;2022-09-09T11:23:09;28.41;43.45
65396;HTU21D;52004;45.136;39.010;2022-09-09T11:25:38;28.41;43.37
65396;HTU21D;52004;45.136;39.010;2022-09-09T11:33:07;28.45;43.19
65396;HTU21D;52004;45.136;39.010;2022-09-09T11:35:53;28.44;43.17
65396;HTU21D;52004;45.136;39.010;2022-09-09T11:38:31;28.49;43.14
65396;HTU21D;52004;45.136;39.010;2022-09-09T11:43:48;28.59;43.05
65396;HTU21D;52004;45.136;39.010;2022-09-09T11:46:13;28.64;42.97
65396;HTU21D;52004;45.136;39.010;2022-09-09T11:48:41;28.65;42.88
65396;HTU21D;52004;45.136;39.010;2022-09-09T11:51:12;28.65;42.72
65396;HTU21D;52004;45.136;39.010;2022-09-09T11:53:52;28.60;42.64
65396;HTU21D;52004;45.136;39.010;2022-09-09T11:56:25;28.56;42.71
65396;HTU21D;52004;45.136;39.010;2022-09-09T11:59:32;28.55;42.67
65396;HTU21D;52004;45.136;39.010;2022-09-09T12:07:00;28.54;42.52
65396;HTU21D;52004;45.136;39.010;2022-09-09T12:09:40;28.52;42.48
65396;HTU21D;52004;45.136;39.010;2022-09-09T12:14:38;28.54;42.42
65396;HTU21D;52004;45.136;39.010;2022-09-09T12:19:36;28.54;42.25
65396;HTU21D;52004;45.136;39.010;2022-09-09T12:24:40;28.50;42.19
65396;HTU21D;52004;45.136;39.010;2022-09-09T12:29:42;28.53;42.13
65396;HTU21D;52004;45.136;39.010;2022-09-09T12:32:11;28.52;42.05
65396;HTU21D;52004;45.136;39.010;2022-09-09T12:37:08;28.43;41.92
65396;HTU21D;52004;45.136;39.010;2022-09-09T12:39:58;28.39;41.91
65396;HTU21D;52004;45.136;39.010;2022-09-09T12:42:23;28.37;41.90
65396;HTU21D;52004;45.136;39.010;2022-09-09T12:44:53;28.38;41.91
65396;HTU21D;52004;45.136;39.010;2022-09-09T12:47:20;28.40;41.88
65396;HTU21D;52004;45.136;39.010;2022-09-09T12:49:47;0.00;41.84
65396;HTU21D;52004;45.136;39.010;2022-09-09T12:54:43;28.40;41.70
65396;HTU21D;52004;45.136;39.010;2022-09-09T12:57:12;28.34;41.49
65396;HTU21D;52004;45.136;39.010;2022-09-09T12:59:40;28.21;41.45
65396;HTU21D;52004;45.136;39.010;2022-09-09T13:04:42;28.13;41.60
65396;HTU21D;52004;45.136;39.010;2022-09-09T13:07:08;28.12;41.55
65396;HTU21D;52004;45.136;39.010;2022-09-09T13:09:37;28.13;41.50
65396;HTU21D;52004;45.136;39.010;2022-09-09T13:12:03;28.10;41.41
65396;HTU21D;52004;45.136;39.010;2022-09-09T13:14:32;28.03;41.39
65396;HTU21D;52004;45.136;39.010;2022-09-09T13:17:01;27.99;41.42
65396;HTU21D;52004;45.136;39.010;2022-09-09T13:19:28;27.97;41.31
65396;HTU21D;52004;45.136;39.010;2022-09-09T13:21:55;27.91;41.33
65396;HTU21D;52004;45.136;39.010;2022-09-09T13:26:59;27.83;41.29
65396;HTU21D;52004;45.136;39.010;2022-09-09T13:29:27;27.81;41.34
65396;HTU21D;52004;45.136;39.010;2022-09-09T13:32:17;27.82;41.33
65396;HTU21D;52004;45.136;39.010;2022-09-09T13:34:49;27.81;41.26
65396;HTU21D;52004;45.136;39.010;2022-09-09T13:37:32;27.79;41.18
65396;HTU21D;52004;45.136;39.010;2022-09-09T13:39:59;27.71;41.16
65396;HTU21D;52004;45.136;39.010;2022-09-09T13:42:26;27.70;41.16
65396;HTU21D;52004;45.136;39.010;2022-09-09T13:44:52;27.64;41.16
65396;HTU21D;52004;45.136;39.010;2022-09-09T13:47:19;27.61;41.16
65396;HTU21D;52004;45.136;39.010;2022-09-09T13:49:47;27.58;41.10
65396;HTU21D;52004;45.136;39.010;2022-09-09T13:52:13;27.54;41.07
65396;HTU21D;52004;45.136;39.010;2022-09-09T13:54:40;27.50;41.08
65396;HTU21D;52004;45.136;39.010;2022-09-09T13:57:18;27.45;41.08
65396;HTU21D;52004;45.136;39.010;2022-09-09T13:59:45;27.40;40.98
65396;HTU21D;52004;45.136;39.010;2022-09-09T14:02:12;27.32;41.02
65396;HTU21D;52004;45.136;39.010;2022-09-09T14:04:38;27.28;41.07
65396;HTU21D;52004;45.136;39.010;2022-09-09T14:07:09;27.24;41.04
65396;HTU21D;52004;45.136;39.010;2022-09-09T14:09:36;27.20;41.09
65396;HTU21D;52004;45.136;39.010;2022-09-09T14:12:02;27.14;41.11
65396;HTU21D;52004;45.136;39.010;2022-09-09T14:14:28;27.11;41.16
65396;HTU21D;52004;45.136;39.010;2022-09-09T14:16:54;27.06;41.26
65396;HTU21D;52004;45.136;39.010;2022-09-09T14:19:20;0.00;41.37
65396;HTU21D;52004;45.136;39.010;2022-09-09T14:21:46;26.95;41.46
65396;HTU21D;52004;45.136;39.010;2022-09-09T14:24:12;26.90;41.53
65396;HTU21D;52004;45.136;39.010;2022-09-09T14:26:38;0.00;41.65
65396;HTU21D;52004;45.136;39.010;2022-09-09T14:29:03;26.71;41.79
65396;HTU21D;52004;45.136;39.010;2022-09-09T14:31:29;26.65;41.96
65396;HTU21D;52004;45.136;39.010;2022-09-09T14:33:55;26.61;42.11
65396;HTU21D;52004;45.136;39.010;2022-09-09T14:36:21;26.56;42.25
65396;HTU21D;52004;45.136;39.010;2022-09-09T14:38:48;26.52;42.36
65396;HTU21D;52004;45.136;39.010;2022-09-09T14:41:15;26.50;42.41
65396;HTU21D;52004;45.136;39.010;2022-09-09T14:43:45;26.45;42.45
65396;HTU21D;52004;45.136;39.010;2022-09-09T14:46:12;26.38;42.50
65396;HTU21D;52004;45.136;39.010;2022-09-09T14:48:39;26.31;42.51
65396;HTU21D;52004;45.136;39.010;2022-09-09T14:51:10;26.25;42.52
65396;HTU21D;52004;45.136;39.010;2022-09-09T14:53:36;26.18;42.46
65396;HTU21D;52004;45.136;39.010;2022-09-09T14:56:03;26.08;42.45
65396;HTU21D;52004;45.136;39.010;2022-09-09T14:58:30;26.02;42.39
65396;HTU21D;52004;45.136;39.010;2022-09-09T15:01:01;25.95;42.35
65396;HTU21D;52004;45.136;39.010;2022-09-09T15:03:27;25.83;42.38
65396;HTU21D;52004;45.136;39.010;2022-09-09T15:05:53;25.75;42.41
65396;HTU21D;52004;45.136;39.010;2022-09-09T15:08:19;25.63;42.42
65396;HTU21D;52004;45.136;39.010;2022-09-09T15:10:45;25.52;42.44
65396;HTU21D;52004;45.136;39.010;2022-09-09T15:13:14;25.44;42.43
65396;HTU21D;52004;45.136;39.010;2022-09-09T15:15:42;25.32;42.43
65396;HTU21D;52004;45.136;39.010;2022-09-09T15:18:09;25.20;42.46
65396;HTU21D;52004;45.136;39.010;2022-09-09T15:20:35;25.07;42.46
65396;HTU21D;52004;45.136;39.010;2022-09-09T15:23:03;24.93;42.47
65396;HTU21D;52004;45.136;39.010;2022-09-09T15:25:28;24.80;42.48
65396;HTU21D;52004;45.136;39.010;2022-09-09T15:27:54;24.65;42.48
65396;HTU21D;52004;45.136;39.010;2022-09-09T15:30:21;24.51;42.48
65396;HTU21D;52004;45.136;39.010;2022-09-09T15:32:47;24.36;42.49
65396;HTU21D;52004;45.136;39.010;2022-09-09T15:35:13;24.23;42.50
65396;HTU21D;52004;45.136;39.010;2022-09-09T15:37:39;24.08;42.52
65396;HTU21D;52004;45.136;39.010;2022-09-09T15:40:05;23.91;42.57
65396;HTU21D;52004;45.136;39.010;2022-09-09T15:42:32;23.76;42.61
65396;HTU21D;52004;45.136;39.010;2022-09-09T15:44:58;23.62;42.68
65396;HTU21D;52004;45.136;39.010;2022-09-09T15:47:24;0.00;42.74
65396;HTU21D;52004;45.136;39.010;2022-09-09T15:49:50;23.31;42.86
65396;HTU21D;52004;45.136;39.010;2022-09-09T15:52:16;0.00;42.93
65396;HTU21D;52004;45.136;39.010;2022-09-09T15:54:42;23.02;43.00
65396;HTU21D;52004;45.136;39.010;2022-09-09T15:57:11;22.91;43.05
65396;HTU21D;52004;45.136;39.010;2022-09-09T15:59:38;22.80;43.13
65396;HTU21D;52004;45.136;39.010;2022-09-09T16:02:04;22.67;43.18
65396;HTU21D;52004;45.136;39.010;2022-09-09T16:04:30;22.55;43.24
65396;HTU21D;52004;45.136;39.010;2022-09-09T16:07:00;22.46;43.34
65396;HTU21D;52004;45.136;39.010;2022-09-09T16:09:27;22.35;43.39
65396;HTU21D;52004;45.136;39.010;2022-09-09T16:11:55;22.25;43.45
65396;HTU21D;52004;45.136;39.010;2022-09-09T16:14:21;22.14;43.54
65396;HTU21D;52004;45.136;39.010;2022-09-09T16:16:47;22.06;43.61
65396;HTU21D;52004;45.136;39.010;2022-09-09T16:19:13;21.97;43.68
65396;HTU21D;52004;45.136;39.010;2022-09-09T16:21:40;21.88;43.74
65396;HTU21D;52004;45.136;39.010;2022-09-09T16:24:08;21.77;43.82
65396;HTU21D;52004;45.136;39.010;2022-09-09T16:26:35;21.68;43.87
65396;HTU21D;52004;45.136;39.010;2022-09-09T16:29:02;21.58;43.96
65396;HTU21D;52004;45.136;39.010;2022-09-09T16:31:29;21.49;44.04
65396;HTU21D;52004;45.136;39.010;2022-09-09T16:33:55;21.39;44.12
65396;HTU21D;52004;45.136;39.010;2022-09-09T16:36:28;21.32;44.20
65396;HTU21D;52004;45.136;39.010;2022-09-09T16:38:56;21.24;44.27
65396;HTU21D;52004;45.136;39.010;2022-09-09T16:41:23;21.17;44.36
65396;HTU21D;52004;45.136;39.010;2022-09-09T16:43:56;21.10;44.44
65396;HTU21D;52004;45.136;39.010;2022-09-09T16:46:22;21.05;44.51
65396;HTU21D;52004;45.136;39.010;2022-09-09T16:48:49;20.99;44.59
65396;HTU21D;52004;45.136;39.010;2022-09-09T16:51:20;0.00;44.67
65396;HTU21D;52004;45.136;39.010;2022-09-09T16:53:46;20.89;44.71
65396;HTU21D;52004;45.136;39.010;2022-09-09T16:56:13;20.84;44.77